createdAt,value
2019-04-21T00:00:55.414Z,101974.67
2019-04-21T00:03:27.477Z,101968.33
2019-04-21T00:06:18.389Z,101972.48
2019-04-21T00:08:50.580Z,101970.39
2019-04-21T00:11:26.464Z,101966.30
2019-04-21T00:13:51.443Z,101957.97
2019-04-21T00:16:10.869Z,101961.52
2019-04-21T00:19:17.238Z,101961.75
2019-04-21T00:21:50.975Z,101954.72
2019-04-21T00:24:30.489Z,101947.98
2019-04-21T00:27:05.249Z,101942.92
2019-04-21T00:29:45.204Z,101942.58
2019-04-21T00:32:10.459Z,101942.11
2019-04-21T00:34:30.171Z,101940.12
2019-04-21T00:37:12.285Z,101931.56
2019-04-21T00:40:00.218Z,101927.12
2019-04-21T00:42:32.682Z,101926.13
2019-04-21T00:44:58.947Z,101915.31
2019-04-21T00:47:34.086Z,101916.09
2019-04-21T00:50:08.095Z,101911.16
2019-04-21T00:52:58.223Z,101910.81
2019-04-21T00:58:19.447Z,101911.91
2019-04-21T01:00:46.023Z,101909.98
2019-04-21T01:03:20.610Z,101903.91
2019-04-21T01:06:00.780Z,101905.27
2019-04-21T01:08:23.477Z,101902.51
2019-04-21T01:10:49.971Z,101903.45
2019-04-21T01:13:39.473Z,101904.90
2019-04-21T01:16:07.228Z,101901.12
2019-04-21T01:18:32.407Z,101891.23
2019-04-21T01:20:47.316Z,101891.05
2019-04-21T01:23:19.217Z,101892.50
2019-04-21T01:26:09.209Z,101887.58
2019-04-21T01:28:40.067Z,101880.63
2019-04-21T01:31:13.642Z,101885.77
2019-04-21T01:33:50.851Z,101889.42
2019-04-21T01:36:18.204Z,101884.67
2019-04-21T01:39:01.128Z,101885.63
2019-04-21T01:41:35.193Z,101884.02
2019-04-21T01:43:55.600Z,101883.81
2019-04-21T01:46:29.842Z,101879.20
2019-04-21T01:49:02.160Z,101870.55
2019-04-21T01:51:45.444Z,101872.80
2019-04-21T01:54:35.582Z,101871.78
2019-04-21T01:57:20.037Z,101876.01
2019-04-21T01:59:43.898Z,101877.27
2019-04-21T02:02:26.667Z,101875.42
2019-04-21T02:05:05.812Z,101870.16
2019-04-21T02:07:32.645Z,101870.58
2019-04-21T02:10:04.809Z,101869.48
2019-04-21T02:12:42.095Z,101861.45
2019-04-21T02:15:11.328Z,101866.06
2019-04-21T02:17:45.304Z,101861.03
2019-04-21T02:20:09.481Z,101862.16
2019-04-21T02:23:07.351Z,101865.77
2019-04-21T02:25:26.327Z,101864.42
2019-04-21T02:27:57.598Z,101856.23
2019-04-21T02:33:23.175Z,101855.93
2019-04-21T02:36:16.502Z,101859.73
2019-04-21T02:38:34.270Z,101859.08
2019-04-21T02:43:24.918Z,101863.46
2019-04-21T02:46:04.757Z,101858.11
2019-04-21T02:48:38.262Z,101856.96
2019-04-21T02:51:10.775Z,101854.38
2019-04-21T02:56:17.995Z,101848.06
2019-04-21T02:59:12.387Z,101855.10
2019-04-21T03:02:04.486Z,101852.09
2019-04-21T03:04:43.116Z,101851.09
2019-04-21T03:09:51.210Z,101846.06
2019-04-21T03:12:38.068Z,101842.62
2019-04-21T03:17:46.226Z,101839.97
2019-04-21T03:20:15.066Z,101834.72
2019-04-21T03:22:42.232Z,101826.78
2019-04-21T03:25:25.149Z,101825.58
2019-04-21T03:27:57.286Z,101821.17
2019-04-21T03:38:14.688Z,101810.66
2019-04-21T03:40:26.175Z,101813.46
2019-04-21T03:43:04.934Z,101812.25
2019-04-21T03:48:11.525Z,101814.31
2019-04-21T03:50:44.781Z,101810.83
2019-04-21T03:58:35.124Z,101812.75
2019-04-21T04:14:47.452Z,101806.83
2019-04-21T04:27:33.367Z,101795.28
2019-04-21T04:30:07.998Z,101797.80
2019-04-21T04:32:23.514Z,101791.90
2019-04-21T04:34:57.193Z,101790.48
2019-04-21T04:37:32.645Z,101785.75
2019-04-21T04:42:56.907Z,101783.94
2019-04-21T04:45:31.477Z,101780.81
2019-04-21T04:48:11.918Z,101780.09
2019-04-21T04:50:43.345Z,101781.77
2019-04-21T04:53:15.688Z,101780.57
2019-04-21T05:03:32.923Z,101780.92
2019-04-21T05:09:07.714Z,101775.75
2019-04-21T05:16:53.081Z,101772.31
2019-04-21T05:19:14.623Z,101772.54
2019-04-21T05:21:42.286Z,101775.27
2019-04-21T05:24:08.199Z,101769.32
2019-04-21T05:26:39.094Z,101769.59
2019-04-21T05:29:11.014Z,101769.59
2019-04-21T05:32:13.263Z,101769.37
2019-04-21T05:34:31.627Z,101765.98
2019-04-21T05:37:14.180Z,101761.41
2019-04-21T05:39:47.985Z,101759.75
2019-04-21T05:42:22.744Z,101760.55
2019-04-21T05:45:09.174Z,101761.11
2019-04-21T05:48:05.987Z,101763.73
2019-04-21T05:50:27.522Z,101757.14
2019-04-21T05:58:20.994Z,101748.08
2019-04-21T06:03:41.112Z,101749.00
2019-04-21T06:06:13.779Z,101751.16
2019-04-21T06:08:49.682Z,101743.16
2019-04-21T06:11:23.305Z,101746.81
2019-04-21T06:13:55.143Z,101744.28
2019-04-21T06:16:28.733Z,101741.86
2019-04-21T06:18:58.734Z,101739.21
2019-04-21T06:21:30.786Z,101741.61
2019-04-21T06:24:08.408Z,101737.95
2019-04-21T06:26:54.987Z,101736.84
2019-04-21T06:29:13.469Z,101733.39
2019-04-21T06:34:16.637Z,101734.85
2019-04-21T06:37:07.827Z,101734.08
2019-04-21T06:39:57.027Z,101737.12
2019-04-21T06:42:10.887Z,101731.77
2019-04-21T06:44:54.526Z,101738.87
2019-04-21T06:47:27.673Z,101734.53
2019-04-21T06:49:48.624Z,101730.95
2019-04-21T06:55:05.382Z,101732.03
2019-04-21T07:00:02.888Z,101729.55
2019-04-21T07:02:50.739Z,101733.12
2019-04-21T07:05:09.096Z,101728.58
2019-04-21T07:07:43.434Z,101732.64
2019-04-21T07:10:16.935Z,101730.47
2019-04-21T07:12:46.604Z,101729.89
2019-04-21T07:15:27.832Z,101731.25
2019-04-21T07:23:22.684Z,101721.93
2019-04-21T07:25:45.922Z,101718.28
2019-04-21T07:28:17.530Z,101719.67
2019-04-21T07:30:56.637Z,101713.31
2019-04-21T07:33:50.893Z,101714.46
2019-04-21T07:35:57.823Z,101706.20
2019-04-21T07:38:28.588Z,101709.66
2019-04-21T07:40:57.017Z,101707.66
2019-04-21T07:43:43.776Z,101703.23
2019-04-21T07:46:15.395Z,101692.05
2019-04-21T07:48:58.530Z,101703.52
2019-04-21T07:51:45.619Z,101704.33
2019-04-21T07:54:23.776Z,101696.05
2019-04-21T07:56:35.039Z,101693.95
2019-04-21T07:59:27.272Z,101687.29
2019-04-21T08:01:55.013Z,101690.00
2019-04-21T08:04:49.632Z,101683.33
2019-04-21T08:06:58.203Z,101682.80
2019-04-21T08:09:38.989Z,101686.34
2019-04-21T08:12:03.783Z,101678.69
2019-04-21T08:14:43.929Z,101680.02
2019-04-21T08:17:09.529Z,101670.50
2019-04-21T08:19:44.602Z,101672.97
2019-04-21T08:22:29.220Z,101667.83
2019-04-21T08:24:50.852Z,101664.20
2019-04-21T08:27:28.217Z,101662.86
2019-04-21T08:29:58.342Z,101662.22
2019-04-21T08:32:46.325Z,101657.28
2019-04-21T08:35:20.695Z,101654.20
2019-04-21T08:37:39.883Z,101653.53
2019-04-21T08:42:50.791Z,101649.89
2019-04-21T08:50:27.887Z,101639.02
2019-04-21T08:53:03.890Z,101635.05
2019-04-21T08:56:10.002Z,101637.51
2019-04-21T08:58:54.887Z,101633.36
2019-04-21T09:01:30.414Z,101627.87
2019-04-21T09:03:59.416Z,101632.30
2019-04-21T09:06:58.616Z,101629.22
2019-04-21T09:09:10.891Z,101624.50
2019-04-21T09:11:42.203Z,101614.91
2019-04-21T09:14:13.862Z,101615.28
2019-04-21T09:16:47.721Z,101613.16
2019-04-21T09:19:33.977Z,101612.84
2019-04-21T09:21:54.577Z,101602.27
2019-04-21T09:24:26.985Z,101607.70
2019-04-21T09:26:57.986Z,101608.08
2019-04-21T09:29:26.472Z,101604.68
2019-04-21T09:31:54.466Z,101603.86
2019-04-21T09:34:31.859Z,101603.44
2019-04-21T09:37:13.988Z,101604.52
2019-04-21T09:39:31.559Z,101596.47
2019-04-21T09:42:04.639Z,101594.42
2019-04-21T09:44:40.124Z,101594.81
2019-04-21T09:47:09.203Z,101590.34
2019-04-21T09:49:43.131Z,101587.41
2019-04-21T09:52:20.918Z,101584.38
2019-04-21T09:54:56.618Z,101586.97
2019-04-21T09:57:31.528Z,101584.37
2019-04-21T10:00:02.244Z,101578.36
2019-04-21T10:02:34.138Z,101575.47
2019-04-21T10:05:00.175Z,101577.84
2019-04-21T10:07:35.572Z,101567.89
2019-04-21T10:10:05.897Z,101565.59
2019-04-21T10:12:37.472Z,101566.53
2019-04-21T10:15:10.748Z,101555.36
2019-04-21T10:17:54.376Z,101554.39
2019-04-21T10:20:26.459Z,101551.10
2019-04-21T10:22:57.903Z,101539.55
2019-04-21T10:25:30.526Z,101535.45
2019-04-21T10:28:03.118Z,101534.71
2019-04-21T10:30:36.440Z,101524.23
2019-04-21T10:33:08.394Z,101522.34
2019-04-21T10:35:41.204Z,101514.50
2019-04-21T10:38:22.711Z,101511.25
2019-04-21T10:40:45.844Z,101509.19
2019-04-21T10:43:20.665Z,101507.87
2019-04-21T10:45:50.716Z,101503.94
2019-04-21T10:48:23.119Z,101501.52
2019-04-21T10:50:54.905Z,101496.85
2019-04-21T10:53:32.386Z,101493.80
2019-04-21T10:56:15.692Z,101489.05
2019-04-21T10:58:42.426Z,101494.20
2019-04-21T11:01:23.189Z,101489.13
2019-04-21T11:04:20.326Z,101490.22
2019-04-21T11:06:46.844Z,101479.20
2019-04-21T11:09:18.130Z,101471.26
2019-04-21T11:11:51.372Z,101472.77
2019-04-21T11:14:23.145Z,101466.95
2019-04-21T11:16:55.146Z,101459.12
2019-04-21T11:19:28.591Z,101454.13
2019-04-21T11:22:01.026Z,101456.84
2019-04-21T11:24:33.651Z,101453.09
2019-04-21T11:27:04.969Z,101451.03
2019-04-21T11:29:37.156Z,101451.51
2019-04-21T11:32:09.318Z,101444.33
2019-04-21T11:34:41.009Z,101439.88
2019-04-21T11:37:14.382Z,101439.95
2019-04-21T11:39:52.016Z,101429.52
2019-04-21T11:42:28.235Z,101432.97
2019-04-21T11:45:00.658Z,101433.09
2019-04-21T11:47:36.704Z,101427.50
2019-04-21T11:50:08.305Z,101428.14
2019-04-21T11:52:40.797Z,101427.23
2019-04-21T11:55:12.873Z,101418.15
2019-04-21T11:57:49.463Z,101424.53
2019-04-21T12:00:19.745Z,101416.09
2019-04-21T12:02:51.265Z,101417.78
2019-04-21T12:05:23.603Z,101410.55
2019-04-21T12:07:58.274Z,101403.86
2019-04-21T12:10:29.243Z,101415.33
2019-04-21T12:13:01.379Z,101405.68
2019-04-21T12:15:34.668Z,101402.20
2019-04-21T12:18:06.241Z,101396.27
2019-04-21T12:20:38.157Z,101399.27
2019-04-21T12:23:09.495Z,101400.91
2019-04-21T12:25:45.181Z,101394.05
2019-04-21T12:28:17.427Z,101388.04
2019-04-21T12:30:53.647Z,101383.19
2019-04-21T12:34:00.298Z,101379.66
2019-04-21T12:36:31.794Z,101379.33
2019-04-21T12:39:05.190Z,101368.91
2019-04-21T12:41:36.306Z,101358.33
2019-04-21T12:44:08.810Z,101356.16
2019-04-21T12:46:40.329Z,101352.70
2019-04-21T12:49:11.922Z,101346.22
2019-04-21T12:54:12.618Z,101342.42
2019-04-21T12:56:43.883Z,101345.72
2019-04-21T12:59:15.208Z,101338.80
2019-04-21T13:01:46.616Z,101334.03
2019-04-21T13:04:17.871Z,101322.31
2019-04-21T13:06:49.835Z,101314.45
2019-04-21T13:09:22.247Z,101322.08
2019-04-21T13:11:55.061Z,101313.60
2019-04-21T13:14:26.561Z,101306.17
2019-04-21T13:16:57.746Z,101305.88
2019-04-21T13:19:29.351Z,101297.78
2019-04-21T13:22:01.613Z,101302.03
2019-04-21T13:24:33.709Z,101286.33
2019-04-21T13:27:06.782Z,101285.72
2019-04-21T13:29:38.586Z,101281.86
2019-04-21T13:32:10.780Z,101273.58
2019-04-21T13:34:44.193Z,101267.52
2019-04-21T13:37:15.664Z,101265.31
2019-04-21T13:40:25.197Z,101264.69
2019-04-21T13:42:43.822Z,101260.32
2019-04-21T13:45:12.222Z,101259.88
2019-04-21T13:47:43.646Z,101262.33
2019-04-21T13:50:17.238Z,101256.55
2019-04-21T13:52:48.962Z,101247.30
2019-04-21T13:55:21.349Z,101247.75
2019-04-21T13:57:52.823Z,101237.28
2019-04-21T14:00:24.495Z,101242.20
2019-04-21T14:02:56.503Z,101233.12
2019-04-21T14:05:28.678Z,101229.94
2019-04-21T14:08:00.986Z,101223.78
2019-04-21T14:10:33.512Z,101222.56
2019-04-21T14:13:06.606Z,101215.19
2019-04-21T14:15:38.081Z,101211.90
2019-04-21T14:18:09.386Z,101201.56
2019-04-21T14:20:40.719Z,101197.77
2019-04-21T14:23:21.334Z,101201.95
2019-04-21T14:25:45.807Z,101195.39
2019-04-21T14:28:17.833Z,101196.08
2019-04-21T14:30:50.454Z,101189.61
2019-04-21T14:33:23.437Z,101182.02
2019-04-21T14:35:54.867Z,101186.28
2019-04-21T14:38:26.792Z,101169.95
2019-04-21T14:40:58.369Z,101167.73
2019-04-21T14:43:30.089Z,101166.84
2019-04-21T14:46:21.464Z,101172.55
2019-04-21T14:49:15.188Z,101162.14
2019-04-21T14:52:05.301Z,101151.41
2019-04-21T14:55:00.681Z,101155.23
2019-04-21T14:57:31.980Z,101153.17
2019-04-21T15:00:04.836Z,101151.95
2019-04-21T15:02:36.245Z,101150.53
2019-04-21T15:05:09.470Z,101151.44
2019-04-21T15:07:41.445Z,101144.78
2019-04-21T15:10:20.089Z,101144.98
2019-04-21T15:12:47.791Z,101135.73
2019-04-21T15:15:20.180Z,101126.52
2019-04-21T15:17:51.645Z,101129.71
2019-04-21T15:20:23.841Z,101127.44
2019-04-21T15:22:56.584Z,101120.63
2019-04-21T15:25:28.019Z,101126.00
2019-04-21T15:27:59.341Z,101125.95
2019-04-21T15:30:32.448Z,101113.62
2019-04-21T15:33:04.519Z,101111.77
2019-04-21T15:35:37.355Z,101108.28
2019-04-21T15:38:09.761Z,101111.66
2019-04-21T15:40:49.656Z,101105.94
2019-04-21T15:43:14.742Z,101101.97
2019-04-21T15:45:46.786Z,101092.70
2019-04-21T15:48:18.319Z,101089.91
2019-04-21T15:50:51.547Z,101086.16
2019-04-21T15:53:23.648Z,101090.94
2019-04-21T15:56:08.719Z,101089.58
2019-04-21T15:58:46.408Z,101083.16
2019-04-21T16:01:36.475Z,101081.20
2019-04-21T16:04:08.055Z,101083.12
2019-04-21T16:06:39.672Z,101074.50
2019-04-21T16:09:14.895Z,101076.27
2019-04-21T16:11:46.371Z,101075.55
2019-04-21T16:14:20.594Z,101078.09
2019-04-21T16:16:53.566Z,101071.50
2019-04-21T16:19:25.210Z,101074.42
2019-04-21T16:21:56.797Z,101068.39
2019-04-21T16:24:28.168Z,101069.75
2019-04-21T16:27:01.698Z,101061.25
2019-04-21T16:29:33.289Z,101061.17
2019-04-21T16:32:04.953Z,101062.50
2019-04-21T16:34:45.631Z,101061.11
2019-04-21T16:37:09.774Z,101064.98
2019-04-21T16:39:45.338Z,101060.67
2019-04-21T16:42:16.681Z,101054.26
2019-04-21T16:44:49.170Z,101049.17
2019-04-21T16:47:21.505Z,101044.41
2019-04-21T16:49:53.923Z,101049.31
2019-04-21T16:52:30.004Z,101044.28
2019-04-21T16:55:07.061Z,101041.94
2019-04-21T16:57:59.474Z,101032.83
2019-04-21T17:00:31.605Z,101040.53
2019-04-21T17:02:58.799Z,101036.97
2019-04-21T17:05:30.168Z,101041.20
2019-04-21T17:08:01.852Z,101034.43
2019-04-21T17:10:33.255Z,101027.93
2019-04-21T17:13:06.202Z,101027.47
2019-04-21T17:15:56.679Z,101030.05
2019-04-21T17:18:25.588Z,101021.05
2019-04-21T17:20:49.160Z,101019.47
2019-04-21T17:23:19.737Z,101011.11
2019-04-21T17:25:51.058Z,101016.91
2019-04-21T17:28:23.526Z,101008.16
2019-04-21T17:30:54.808Z,101012.78
2019-04-21T17:33:28.330Z,101011.43
2019-04-21T17:35:59.148Z,101008.02
2019-04-21T17:38:30.591Z,101006.89
2019-04-21T17:41:13.876Z,101000.42
2019-04-21T17:43:35.678Z,100999.59
2019-04-21T17:46:07.220Z,100995.63
2019-04-21T17:48:38.775Z,100997.89
2019-04-21T17:51:29.850Z,101001.43
2019-04-21T17:54:13.914Z,101003.83
2019-04-21T17:59:44.774Z,100998.34
2019-04-21T18:02:00.459Z,100997.80
2019-04-21T18:04:37.466Z,100999.84
2019-04-21T18:07:27.445Z,100998.10
2019-04-21T18:10:04.734Z,101004.80
2019-04-21T18:12:40.028Z,101007.05
2019-04-21T18:15:08.396Z,101012.04
2019-04-21T18:17:28.673Z,101021.31
2019-04-21T18:20:01.666Z,101016.27
2019-04-21T18:23:02.364Z,101010.08
2019-04-21T18:25:44.886Z,101018.20
2019-04-21T18:28:08.237Z,101016.82
2019-04-21T18:30:46.930Z,101018.17
2019-04-21T18:33:25.317Z,101024.13
2019-04-21T18:36:34.841Z,101019.19
2019-04-21T18:39:49.530Z,101015.16
2019-04-21T18:42:31.129Z,101017.35
2019-04-21T18:45:45.814Z,101016.50
2019-04-21T18:48:21.782Z,101018.41
2019-04-21T18:51:00.281Z,101018.00
2019-04-21T18:53:44.767Z,101013.94
2019-04-21T18:56:06.452Z,101023.22
2019-04-21T18:58:36.156Z,101023.26
2019-04-21T19:01:16.365Z,101014.88
2019-04-21T19:03:44.992Z,101014.67
2019-04-21T19:06:18.796Z,101014.80
2019-04-21T19:09:04.852Z,101016.25
2019-04-21T19:11:33.235Z,101010.84
2019-04-21T19:14:34.693Z,101020.55
2019-04-21T19:17:29.227Z,101014.97
2019-04-21T19:19:44.475Z,101017.56
2019-04-21T19:22:10.490Z,101020.39
2019-04-21T19:25:00.407Z,101020.09
2019-04-21T19:27:17.619Z,101021.25
2019-04-21T19:29:58.311Z,101023.63
2019-04-21T19:34:40.395Z,101018.35
2019-04-21T19:37:14.957Z,101008.52
2019-04-21T19:39:56.677Z,101008.52
2019-04-21T19:42:25.668Z,101002.18
2019-04-21T19:45:05.927Z,101005.17
2019-04-21T19:47:40.583Z,101004.27
2019-04-21T19:50:19.525Z,101004.46
2019-04-21T19:52:39.902Z,101005.91
2019-04-21T19:55:02.542Z,101009.75
2019-04-21T19:57:34.724Z,101002.81
2019-04-21T20:00:08.200Z,101002.48
2019-04-21T20:02:40.535Z,100998.97
2019-04-21T20:05:20.227Z,100994.39
2019-04-21T20:08:04.124Z,100992.92
2019-04-21T20:10:39.540Z,100993.78
2019-04-21T20:13:14.549Z,100985.80
2019-04-21T20:15:44.731Z,100983.59
2019-04-21T20:18:07.188Z,100980.19
2019-04-21T20:20:30.970Z,100977.80
2019-04-21T20:23:03.056Z,100977.58
2019-04-21T20:25:42.407Z,100970.86
2019-04-21T20:28:16.086Z,100969.72
2019-04-21T20:30:58.320Z,100969.62
2019-04-21T20:33:48.715Z,100968.15
2019-04-21T20:36:09.715Z,100963.91
2019-04-21T20:38:31.099Z,100964.95
2019-04-21T20:41:00.134Z,100961.33
2019-04-21T20:43:42.529Z,100958.60
2019-04-21T20:46:12.344Z,100955.09
2019-04-21T20:48:48.078Z,100952.61
2019-04-21T20:51:21.909Z,100952.31
2019-04-21T20:53:53.849Z,100951.70
2019-04-21T20:56:21.179Z,100951.50
2019-04-21T20:59:04.480Z,100949.41
2019-04-21T21:01:34.820Z,100949.53
2019-04-21T21:04:10.266Z,100945.78
2019-04-21T21:06:36.032Z,100943.81
2019-04-21T21:09:10.151Z,100946.19
2019-04-21T21:11:56.554Z,100937.22
2019-04-21T21:14:26.914Z,100940.09
2019-04-21T21:16:58.105Z,100933.74
2019-04-21T21:19:28.910Z,100939.94
2019-04-21T21:21:56.455Z,100941.15
2019-04-21T21:24:38.815Z,100940.86
2019-04-21T21:27:05.920Z,100939.25
2019-04-21T21:29:33.578Z,100943.58
2019-04-21T21:32:16.681Z,100945.15
2019-04-21T21:34:47.914Z,100939.80
2019-04-21T21:37:26.802Z,100936.61
2019-04-21T21:39:57.117Z,100939.45
2019-04-21T21:42:07.572Z,100933.94
2019-04-21T21:44:41.721Z,100932.42
2019-04-21T21:47:26.147Z,100931.08
2019-04-21T21:49:55.430Z,100930.08
2019-04-21T21:52:32.739Z,100927.02
2019-04-21T21:54:49.864Z,100929.86
2019-04-21T21:57:21.209Z,100931.77
2019-04-21T21:59:58.838Z,100927.21
2019-04-21T22:02:35.318Z,100929.20
2019-04-21T22:05:08.712Z,100927.62
2019-04-21T22:07:33.668Z,100922.54
2019-04-21T22:10:06.336Z,100925.02
2019-04-21T22:12:45.706Z,100919.71
2019-04-21T22:15:18.840Z,100918.81
2019-04-21T22:18:01.144Z,100919.65
2019-04-21T22:20:37.809Z,100922.23
2019-04-21T22:23:00.651Z,100913.06
2019-04-21T22:25:28.227Z,100923.09
2019-04-21T22:27:57.909Z,100921.01
2019-04-21T22:30:37.044Z,100923.33
2019-04-21T22:33:08.288Z,100922.41
2019-04-21T22:35:42.556Z,100920.88
2019-04-21T22:38:23.390Z,100919.23
2019-04-21T22:40:55.478Z,100926.02
2019-04-21T22:43:24.477Z,100931.49
2019-04-21T22:45:49.394Z,100924.60
2019-04-21T22:48:23.644Z,100931.94
2019-04-21T22:50:53.784Z,100922.10
2019-04-21T22:53:29.336Z,100918.33
2019-04-21T22:56:04.332Z,100918.55
2019-04-21T22:58:35.703Z,100913.62
2019-04-21T23:01:05.576Z,100908.91
2019-04-21T23:03:40.141Z,100911.53
2019-04-21T23:06:16.208Z,100908.72
2019-04-21T23:08:45.657Z,100909.50
2019-04-21T23:11:16.678Z,100906.70
2019-04-21T23:13:52.660Z,100904.01
2019-04-21T23:16:29.317Z,100907.66
2019-04-21T23:19:10.991Z,100903.82
2019-04-21T23:21:48.466Z,100904.44
2019-04-21T23:24:14.869Z,100901.74
2019-04-21T23:26:48.611Z,100901.92
2019-04-21T23:29:25.854Z,100895.49
2019-04-21T23:31:55.059Z,100894.46
2019-04-21T23:34:18.449Z,100897.78
2019-04-21T23:36:54.373Z,100896.11
2019-04-21T23:39:23.660Z,100885.13
2019-04-21T23:41:52.945Z,100883.65
2019-04-21T23:44:24.091Z,100882.54
2019-04-21T23:47:00.987Z,100880.70
2019-04-21T23:49:40.551Z,100880.83
2019-04-21T23:52:05.247Z,100879.02
2019-04-21T23:54:35.481Z,100874.73
2019-04-21T23:57:14.315Z,100872.81
2019-04-21T23:59:51.274Z,100866.73
